createdAt,value
2022-11-24T00:00:21.224Z,78.66
2022-11-24T00:03:11.294Z,78.80
2022-11-24T00:05:41.747Z,79.01
2022-11-24T00:08:13.080Z,79.08
2022-11-24T00:10:42.874Z,78.87
2022-11-24T00:13:13.198Z,78.98
2022-11-24T00:15:43.698Z,79.14
2022-11-24T00:18:13.992Z,78.66
2022-11-24T00:20:52.324Z,79.02
2022-11-24T00:23:22.206Z,78.84
2022-11-24T00:25:52.461Z,78.58
2022-11-24T00:28:22.409Z,78.60
2022-11-24T00:30:52.556Z,78.68
2022-11-24T00:33:22.436Z,78.66
2022-11-24T00:36:01.756Z,78.38
2022-11-24T00:38:31.648Z,78.49
2022-11-24T00:41:01.594Z,78.49
2022-11-24T00:43:32.105Z,78.24
2022-11-24T00:46:01.433Z,78.27
2022-11-24T00:48:32.243Z,78.13
2022-11-24T00:51:05.040Z,78.25
2022-11-24T00:53:34.994Z,78.55
2022-11-24T00:56:05.213Z,78.26
2022-11-24T00:58:35.951Z,78.47
2022-11-24T01:01:13.486Z,78.64
2022-11-24T01:03:44.324Z,78.36
2022-11-24T01:06:19.085Z,78.49
2022-11-24T01:08:49.647Z,78.58
2022-11-24T01:11:52.694Z,78.37
2022-11-24T01:14:25.236Z,78.44
2022-11-24T01:16:55.877Z,78.44
2022-11-24T01:19:25.746Z,78.39
2022-11-24T01:21:54.869Z,78.36
2022-11-24T01:24:25.663Z,78.31
2022-11-24T01:26:55.662Z,77.93
2022-11-24T01:29:26.589Z,78.31
2022-11-24T01:31:57.397Z,78.32
2022-11-24T01:34:26.363Z,78.12
2022-11-24T01:36:56.823Z,78.11
2022-11-24T01:39:27.124Z,78.37
2022-11-24T01:42:01.134Z,78.28
2022-11-24T01:44:33.736Z,78.07
2022-11-24T01:47:28.855Z,78.05
2022-11-24T01:50:02.621Z,78.02
2022-11-24T01:52:38.002Z,77.93
2022-11-24T01:55:14.445Z,78.02
2022-11-24T01:57:51.775Z,77.90
2022-11-24T02:00:22.128Z,77.79
2022-11-24T02:02:51.681Z,77.31
2022-11-24T02:05:26.479Z,77.54
2022-11-24T02:08:00.973Z,77.73
2022-11-24T02:10:31.592Z,77.84
2022-11-24T02:13:02.299Z,77.96
2022-11-24T02:15:33.450Z,78.05
2022-11-24T02:18:03.851Z,77.68
2022-11-24T02:20:34.726Z,77.68
2022-11-24T02:23:19.874Z,78.03
2022-11-24T02:26:16.420Z,78.05
2022-11-24T02:28:47.584Z,77.98
2022-11-24T02:31:18.372Z,78.32
2022-11-24T02:33:50.654Z,78.39
2022-11-24T02:36:20.978Z,78.32
2022-11-24T02:38:51.181Z,78.22
2022-11-24T02:41:25.971Z,78.44
2022-11-24T02:44:00.856Z,78.64
2022-11-24T02:46:33.773Z,78.72
2022-11-24T02:49:04.185Z,78.67
2022-11-24T02:51:35.059Z,78.37
2022-11-24T02:54:05.058Z,78.37
2022-11-24T02:56:35.653Z,78.33
2022-11-24T02:59:05.673Z,78.75
2022-11-24T03:01:36.096Z,78.80
2022-11-24T03:04:06.790Z,78.70
2022-11-24T03:06:36.905Z,78.87
2022-11-24T03:09:07.210Z,78.79
2022-11-24T03:11:38.198Z,78.69
2022-11-24T03:14:09.081Z,78.82
2022-11-24T03:16:41.950Z,78.74
2022-11-24T03:19:12.854Z,78.85
2022-11-24T03:21:43.285Z,78.92
2022-11-24T03:24:13.871Z,78.91
2022-11-24T03:26:44.385Z,79.01
2022-11-24T03:29:14.132Z,79.15
2022-11-24T03:31:44.432Z,79.15
2022-11-24T03:34:14.177Z,79.08
2022-11-24T03:36:44.393Z,79.10
2022-11-24T03:39:14.928Z,79.45
2022-11-24T03:41:44.650Z,79.31
2022-11-24T03:44:14.801Z,79.38
2022-11-24T03:46:45.690Z,79.59
2022-11-24T03:49:15.812Z,79.66
2022-11-24T03:51:44.880Z,79.60
2022-11-24T03:54:16.086Z,79.64
2022-11-24T03:56:46.320Z,79.55
2022-11-24T03:59:16.727Z,79.90
2022-11-24T04:01:46.626Z,79.71
2022-11-24T04:04:16.945Z,79.85
2022-11-24T04:06:47.116Z,79.69
2022-11-24T04:09:17.268Z,79.84
2022-11-24T04:12:05.567Z,79.89
2022-11-24T04:14:36.387Z,80.14
2022-11-24T04:17:07.243Z,80.04
2022-11-24T04:19:37.696Z,80.25
2022-11-24T04:22:08.181Z,80.19
2022-11-24T04:24:38.526Z,80.08
2022-11-24T04:27:08.520Z,80.22
2022-11-24T04:29:39.043Z,80.38
2022-11-24T04:32:09.438Z,80.30
2022-11-24T04:34:39.982Z,80.17
2022-11-24T04:37:10.814Z,80.23
2022-11-24T04:39:41.316Z,80.13
2022-11-24T04:42:11.551Z,80.12
2022-11-24T04:44:42.229Z,80.31
2022-11-24T04:47:26.027Z,80.34
2022-11-24T04:49:56.522Z,80.10
2022-11-24T04:52:27.480Z,80.37
2022-11-24T04:54:58.051Z,80.38
2022-11-24T04:57:28.587Z,80.31
2022-11-24T04:59:59.121Z,80.23
2022-11-24T05:02:31.178Z,80.30
2022-11-24T05:05:01.918Z,80.11
2022-11-24T05:07:34.844Z,80.25
2022-11-24T05:10:25.399Z,80.26
2022-11-24T05:12:57.168Z,80.51
2022-11-24T05:15:27.731Z,80.60
2022-11-24T05:17:58.035Z,80.78
2022-11-24T05:20:26.878Z,80.64
2022-11-24T05:23:05.558Z,80.55
2022-11-24T05:25:36.225Z,80.77
2022-11-24T05:28:10.226Z,80.77
2022-11-24T05:30:40.545Z,81.12
2022-11-24T05:33:13.119Z,81.07
2022-11-24T05:35:42.275Z,80.92
2022-11-24T05:38:12.582Z,81.29
2022-11-24T05:40:42.440Z,81.27
2022-11-24T05:43:13.839Z,81.34
2022-11-24T05:45:44.886Z,81.36
2022-11-24T05:48:16.633Z,81.51
2022-11-24T05:50:46.613Z,81.54
2022-11-24T05:53:16.429Z,81.45
2022-11-24T05:55:46.507Z,81.47
2022-11-24T05:58:16.469Z,81.76
2022-11-24T06:00:45.156Z,81.93
2022-11-24T06:03:15.278Z,81.80
2022-11-24T06:05:47.782Z,82.03
2022-11-24T06:08:17.731Z,81.94
2022-11-24T06:10:47.316Z,82.00
2022-11-24T06:13:17.442Z,81.88
2022-11-24T06:15:47.248Z,82.04
2022-11-24T06:18:17.987Z,82.21
2022-11-24T06:21:09.154Z,82.14
2022-11-24T06:23:39.139Z,82.00
2022-11-24T06:26:10.190Z,82.62
2022-11-24T06:28:40.139Z,82.71
2022-11-24T06:31:11.057Z,82.83
2022-11-24T06:33:41.236Z,82.98
2022-11-24T06:36:14.120Z,82.83
2022-11-24T06:38:44.669Z,82.93
2022-11-24T06:41:16.271Z,83.00
2022-11-24T06:43:46.653Z,83.08
2022-11-24T06:46:16.754Z,82.83
2022-11-24T06:48:47.575Z,83.02
2022-11-24T06:51:19.222Z,83.06
2022-11-24T06:53:49.243Z,83.15
2022-11-24T06:56:20.662Z,83.24
2022-11-24T06:58:52.802Z,83.20
2022-11-24T07:01:25.671Z,83.30
2022-11-24T07:03:56.509Z,83.27
2022-11-24T07:06:28.906Z,83.06
2022-11-24T07:08:59.242Z,83.28
2022-11-24T07:11:29.207Z,83.34
2022-11-24T07:14:00.240Z,83.13
2022-11-24T07:16:29.600Z,83.10
2022-11-24T07:19:01.549Z,83.14
2022-11-24T07:21:31.562Z,83.18
2022-11-24T07:24:01.889Z,83.35
2022-11-24T07:26:32.068Z,83.44
2022-11-24T07:29:01.903Z,83.35
2022-11-24T07:31:30.738Z,83.49
2022-11-24T07:34:03.387Z,83.52
2022-11-24T07:36:33.790Z,83.46
2022-11-24T07:39:07.353Z,83.41
2022-11-24T07:41:37.910Z,83.15
2022-11-24T07:44:08.189Z,83.34
2022-11-24T07:46:38.195Z,83.40
2022-11-24T07:49:08.176Z,83.06
2022-11-24T07:51:37.377Z,83.11
2022-11-24T07:54:07.805Z,83.10
2022-11-24T07:56:36.607Z,83.07
2022-11-24T07:59:06.636Z,83.06
2022-11-24T08:01:35.498Z,83.17
2022-11-24T08:04:04.597Z,83.32
2022-11-24T08:06:39.823Z,83.26
2022-11-24T08:09:11.171Z,83.08
2022-11-24T08:11:41.897Z,82.78
2022-11-24T08:14:10.798Z,82.74
2022-11-24T08:16:40.759Z,81.79
2022-11-24T08:19:12.335Z,81.23
2022-11-24T08:21:43.157Z,81.31
2022-11-24T08:24:15.665Z,81.10
2022-11-24T08:26:45.041Z,81.06
2022-11-24T08:29:14.990Z,81.22
2022-11-24T08:31:44.993Z,81.10
2022-11-24T08:34:14.547Z,81.26
2022-11-24T08:36:44.372Z,80.97
2022-11-24T08:39:14.241Z,80.98
2022-11-24T08:41:44.337Z,80.97
2022-11-24T08:44:16.281Z,80.74
2022-11-24T08:46:45.602Z,80.01
2022-11-24T08:49:16.329Z,79.65
2022-11-24T08:51:47.750Z,79.50
2022-11-24T08:54:19.252Z,79.28
2022-11-24T08:56:50.463Z,79.60
2022-11-24T08:59:20.945Z,79.80
2022-11-24T09:01:49.966Z,79.86
2022-11-24T09:04:20.174Z,79.97
2022-11-24T09:06:50.679Z,79.88
2022-11-24T09:09:20.632Z,79.76
2022-11-24T09:11:50.266Z,80.16
2022-11-24T09:14:19.035Z,79.81
2022-11-24T09:16:49.657Z,79.16
2022-11-24T09:19:19.962Z,78.95
2022-11-24T09:21:49.334Z,78.96
2022-11-24T09:24:19.922Z,79.07
2022-11-24T09:26:49.938Z,79.26
2022-11-24T09:29:19.970Z,79.50
2022-11-24T09:31:49.876Z,79.76
2022-11-24T09:34:19.854Z,79.37
2022-11-24T09:36:52.017Z,79.31
2022-11-24T09:39:21.984Z,79.54
2022-11-24T09:42:03.118Z,79.35
2022-11-24T09:44:50.052Z,79.84
2022-11-24T09:47:43.934Z,79.67
2022-11-24T09:50:26.687Z,79.78
2022-11-24T09:53:06.021Z,79.28
2022-11-24T09:55:51.017Z,78.21
2022-11-24T09:58:58.274Z,78.53
2022-11-24T10:01:32.056Z,78.45
2022-11-24T10:04:06.700Z,78.82
2022-11-24T10:06:48.626Z,78.69
2022-11-24T10:09:35.058Z,79.12
2022-11-24T10:12:52.785Z,79.17
2022-11-24T10:15:30.318Z,78.76
2022-11-24T10:18:17.241Z,78.88
2022-11-24T10:20:56.082Z,78.93
2022-11-24T10:24:02.397Z,78.17
2022-11-24T10:26:49.829Z,78.38
2022-11-24T10:29:41.942Z,78.33
2022-11-24T10:32:25.967Z,78.50
2022-11-24T10:34:59.437Z,78.58
2022-11-24T10:37:44.017Z,78.66
2022-11-24T10:40:49.158Z,78.76
2022-11-24T10:43:18.660Z,78.56
2022-11-24T10:45:50.535Z,78.37
2022-11-24T10:48:28.829Z,77.77
2022-11-24T10:51:21.585Z,77.66
2022-11-24T10:53:55.677Z,77.85
2022-11-24T10:56:25.974Z,77.72
2022-11-24T10:58:56.283Z,77.66
2022-11-24T11:01:33.582Z,77.71
2022-11-24T11:04:04.201Z,77.76
2022-11-24T11:06:35.254Z,77.94
2022-11-24T11:09:08.800Z,78.06
2022-11-24T11:11:40.402Z,78.13
2022-11-24T11:14:13.453Z,78.06
2022-11-24T11:16:56.114Z,78.08
2022-11-24T11:19:49.851Z,78.23
2022-11-24T11:22:30.755Z,78.24
2022-11-24T11:25:22.655Z,78.64
2022-11-24T11:28:17.684Z,78.88
2022-11-24T11:34:04.610Z,78.46
2022-11-24T11:36:45.816Z,78.75
2022-11-24T11:39:33.908Z,79.02
2022-11-24T11:43:00.245Z,79.25
2022-11-24T11:45:21.404Z,79.52
2022-11-24T11:48:01.071Z,79.13
2022-11-24T11:54:38.081Z,78.56
2022-11-24T11:57:36.496Z,78.70
2022-11-24T12:00:16.751Z,78.72
2022-11-24T12:03:11.602Z,78.69
2022-11-24T12:06:08.924Z,78.85
2022-11-24T12:09:19.384Z,78.36
2022-11-24T12:12:11.454Z,78.56
2022-11-24T12:15:15.543Z,78.55
2022-11-24T12:17:58.496Z,78.42
2022-11-24T12:20:47.790Z,78.32
2022-11-24T12:23:35.054Z,78.33
2022-11-24T12:26:26.923Z,77.94
2022-11-24T12:29:26.474Z,77.78
2022-11-24T12:32:23.126Z,77.58
2022-11-24T12:35:12.443Z,77.81
2022-11-24T12:37:43.286Z,77.81
2022-11-24T12:40:25.317Z,77.70
2022-11-24T12:43:18.111Z,77.65
2022-11-24T12:45:58.363Z,77.21
2022-11-24T12:48:57.886Z,77.06
2022-11-24T12:51:48.391Z,77.35
2022-11-24T12:54:21.676Z,77.72
2022-11-24T12:57:00.198Z,78.03
2022-11-24T13:00:07.734Z,78.06
2022-11-24T13:02:55.595Z,78.13
2022-11-24T13:05:32.725Z,77.88
2022-11-24T13:08:04.602Z,77.69
2022-11-24T13:10:55.419Z,77.85
2022-11-24T13:14:15.412Z,77.71
2022-11-24T13:17:29.026Z,77.85
2022-11-24T13:20:15.081Z,77.80
2022-11-24T13:22:53.855Z,77.71
2022-11-24T13:25:27.024Z,77.73
2022-11-24T13:28:00.315Z,77.87
2022-11-24T13:30:35.679Z,77.82
2022-11-24T13:33:17.105Z,77.99
2022-11-24T13:36:08.252Z,78.03
2022-11-24T13:38:51.663Z,77.87
2022-11-24T13:41:33.474Z,77.86
2022-11-24T13:44:16.315Z,77.48
2022-11-24T13:47:07.084Z,77.56
2022-11-24T13:49:42.203Z,77.33
2022-11-24T13:52:44.432Z,77.42
2022-11-24T13:55:14.505Z,77.74
2022-11-24T13:58:16.795Z,77.89
2022-11-24T14:01:25.408Z,77.93
2022-11-24T14:07:07.082Z,77.65
2022-11-24T14:09:45.199Z,77.71
2022-11-24T14:12:17.849Z,77.32
2022-11-24T14:14:50.336Z,77.16
2022-11-24T14:17:28.869Z,76.93
2022-11-24T14:19:59.148Z,76.94
2022-11-24T14:22:41.670Z,77.21
2022-11-24T14:25:28.547Z,77.04
2022-11-24T14:28:00.242Z,77.14
2022-11-24T14:30:29.988Z,77.53
2022-11-24T14:33:04.381Z,77.96
2022-11-24T14:35:36.082Z,77.90
2022-11-24T14:38:06.762Z,77.69
2022-11-24T14:40:46.471Z,77.83
2022-11-24T14:43:35.285Z,77.76
2022-11-24T14:46:10.304Z,77.85
2022-11-24T14:48:50.978Z,77.59
2022-11-24T14:51:36.562Z,77.97
2022-11-24T14:54:14.558Z,77.90
2022-11-24T14:57:07.200Z,77.73
2022-11-24T14:59:38.634Z,77.83
2022-11-24T15:02:41.715Z,77.88
2022-11-24T15:05:12.624Z,77.83
2022-11-24T15:07:46.908Z,78.21
2022-11-24T15:10:36.387Z,78.14
2022-11-24T15:13:18.699Z,77.93
2022-11-24T15:16:16.158Z,78.35
2022-11-24T15:18:57.579Z,78.35
2022-11-24T15:21:35.729Z,78.39
2022-11-24T15:24:16.138Z,78.18
2022-11-24T15:26:46.967Z,78.38
2022-11-24T15:29:16.944Z,78.52
2022-11-24T15:31:52.308Z,78.52
2022-11-24T15:34:22.285Z,78.29
2022-11-24T15:36:52.555Z,78.19
2022-11-24T15:39:22.865Z,78.17
2022-11-24T15:41:55.107Z,78.21
2022-11-24T15:44:24.724Z,78.21
2022-11-24T15:46:55.687Z,78.14
2022-11-24T15:49:26.496Z,78.29
2022-11-24T15:51:56.494Z,78.42
2022-11-24T15:54:28.073Z,78.72
2022-11-24T15:56:58.411Z,78.95
2022-11-24T15:59:28.656Z,79.08
2022-11-24T16:01:58.987Z,78.92
2022-11-24T16:04:29.335Z,78.88
2022-11-24T16:07:00.018Z,78.78
2022-11-24T16:09:30.272Z,78.85
2022-11-24T16:11:59.724Z,78.64
2022-11-24T16:14:30.181Z,78.64
2022-11-24T16:16:59.758Z,78.50
2022-11-24T16:19:30.170Z,78.39
2022-11-24T16:21:58.938Z,78.88
2022-11-24T16:24:29.147Z,78.96
2022-11-24T16:26:59.233Z,78.93
2022-11-24T16:29:32.836Z,78.66
2022-11-24T16:32:06.460Z,78.88
2022-11-24T16:34:36.723Z,78.61
2022-11-24T16:37:06.484Z,78.62
2022-11-24T16:39:36.554Z,78.49
2022-11-24T16:42:06.666Z,78.70
2022-11-24T16:44:38.621Z,78.92
2022-11-24T16:47:08.535Z,79.18
2022-11-24T16:49:38.972Z,79.13
2022-11-24T16:52:08.979Z,78.98
2022-11-24T16:54:39.354Z,79.18
2022-11-24T16:57:15.005Z,79.21
2022-11-24T16:59:46.712Z,79.11
2022-11-24T17:02:16.949Z,79.10
2022-11-24T17:04:50.083Z,79.25
2022-11-24T17:07:20.976Z,79.06
2022-11-24T17:09:51.349Z,79.39
2022-11-24T17:12:21.377Z,79.29
2022-11-24T17:15:16.420Z,79.07
2022-11-24T17:18:01.339Z,79.19
2022-11-24T17:20:31.877Z,79.16
2022-11-24T17:23:02.299Z,78.90
2022-11-24T17:25:35.012Z,78.83
2022-11-24T17:28:05.188Z,78.75
2022-11-24T17:30:36.934Z,79.01
2022-11-24T17:33:05.718Z,79.09
2022-11-24T17:35:36.034Z,79.02
2022-11-24T17:38:06.098Z,79.25
2022-11-24T17:40:36.032Z,79.32
2022-11-24T17:43:06.075Z,79.31
2022-11-24T17:45:36.067Z,79.30
2022-11-24T17:48:06.428Z,79.60
2022-11-24T17:50:36.595Z,79.59
2022-11-24T17:53:06.845Z,79.68
2022-11-24T17:55:36.830Z,79.75
2022-11-24T17:58:06.884Z,79.70
2022-11-24T18:00:36.984Z,79.29
2022-11-24T18:03:06.970Z,79.53
2022-11-24T18:05:40.712Z,79.66
2022-11-24T18:08:12.503Z,79.77
2022-11-24T18:10:42.619Z,79.94
2022-11-24T18:13:33.855Z,80.06
2022-11-24T18:16:05.420Z,80.50
2022-11-24T18:18:40.039Z,80.46
2022-11-24T18:21:17.531Z,80.48
2022-11-24T18:23:47.729Z,80.51
2022-11-24T18:26:18.146Z,80.73
2022-11-24T18:28:48.345Z,80.77
2022-11-24T18:31:22.688Z,80.98
2022-11-24T18:33:57.188Z,80.57
2022-11-24T18:36:30.567Z,80.65
2022-11-24T18:39:06.316Z,81.01
2022-11-24T18:41:36.610Z,80.63
2022-11-24T18:44:08.781Z,80.34
2022-11-24T18:46:39.461Z,80.09
2022-11-24T18:49:09.563Z,80.12
2022-11-24T18:51:41.091Z,80.52
2022-11-24T18:54:11.108Z,80.51
2022-11-24T18:56:41.146Z,80.60
2022-11-24T18:59:11.264Z,80.92
2022-11-24T19:01:41.247Z,80.77
2022-11-24T19:04:13.140Z,80.70
2022-11-24T19:06:43.474Z,80.83
2022-11-24T19:09:17.555Z,80.93
2022-11-24T19:11:48.450Z,80.96
2022-11-24T19:14:21.247Z,80.91
2022-11-24T19:16:51.893Z,80.95
2022-11-24T19:19:22.288Z,80.77
2022-11-24T19:21:52.855Z,80.81
2022-11-24T19:24:22.781Z,80.75
2022-11-24T19:26:54.612Z,80.73
2022-11-24T19:29:24.839Z,80.13
2022-11-24T19:31:55.848Z,80.21
2022-11-24T19:34:25.875Z,80.31
2022-11-24T19:36:56.296Z,80.18
2022-11-24T19:39:26.568Z,80.19
2022-11-24T19:41:57.316Z,80.05
2022-11-24T19:44:26.565Z,80.14
2022-11-24T19:46:58.456Z,80.19
2022-11-24T19:49:28.787Z,80.13
2022-11-24T19:51:59.162Z,80.17
2022-11-24T19:54:28.246Z,80.21
2022-11-24T19:56:58.572Z,80.27
2022-11-24T19:59:28.891Z,79.93
2022-11-24T20:01:59.234Z,80.05
2022-11-24T20:04:29.483Z,80.20
2022-11-24T20:07:00.635Z,79.74
2022-11-24T20:09:31.064Z,79.86
2022-11-24T20:12:01.418Z,79.99
2022-11-24T20:14:31.765Z,80.04
2022-11-24T20:17:02.129Z,80.23
2022-11-24T20:19:33.222Z,80.11
2022-11-24T20:22:03.294Z,80.13
2022-11-24T20:24:33.712Z,79.95
2022-11-24T20:27:04.141Z,79.94
2022-11-24T20:29:34.653Z,79.80
2022-11-24T20:32:04.955Z,79.80
2022-11-24T20:34:34.039Z,79.84
